Time;durP1;ratioP1;P1;durP2;ratioP2;P2;SDS_P1;SDS_P2;PMS_P1;PMS_P2;Temp;Humidity;BMP_temperature;BMP_pressure;BME280_temperature;BME280_humidity;BME280_pressure;Samples;Min_cycle;Max_cycle;Signal;HPM_P1;HPM_P2
2024/03/24 00:02:15;;;;;;;35.13;17.63;;;4.40;99.90;;;;;;5075509;28;20107;-69
2024/03/24 00:04:40;;;;;;;32.50;16.73;;;4.40;99.90;;;;;;5075849;28;20020;-69
2024/03/24 00:07:06;;;;;;;26.48;15.35;;;4.40;99.90;;;;;;5075602;28;20032;-69
2024/03/24 00:09:31;;;;;;;31.77;16.40;;;4.40;99.90;;;;;;5075590;28;20035;-69
2024/03/24 00:11:57;;;;;;;27.55;15.52;;;4.40;99.90;;;;;;5075463;28;20056;-69
2024/03/24 00:14:22;;;;;;;30.38;15.20;;;4.50;99.90;;;;;;5075534;28;20023;-69
2024/03/24 00:16:48;;;;;;;26.17;14.25;;;4.50;99.90;;;;;;5075483;28;20021;-69
2024/03/24 00:19:13;;;;;;;27.65;15.32;;;4.50;99.90;;;;;;5075388;28;20390;-69
2024/03/24 00:21:39;;;;;;;27.77;13.82;;;4.50;99.90;;;;;;5075457;28;20483;-69
2024/03/24 00:24:05;;;;;;;26.77;14.45;;;4.50;99.90;;;;;;5075437;28;20032;-69
2024/03/24 00:26:31;;;;;;;25.33;14.23;;;4.50;99.90;;;;;;5075221;28;20032;-69
2024/03/24 00:28:56;;;;;;;24.83;13.13;;;4.50;99.90;;;;;;5075241;28;20486;-69
2024/03/24 00:31:22;;;;;;;23.52;13.80;;;4.50;99.90;;;;;;5074937;28;20048;-69
2024/03/24 00:33:47;;;;;;;22.92;12.40;;;4.60;99.90;;;;;;5075174;28;20512;-69
2024/03/24 00:36:13;;;;;;;22.50;12.18;;;4.60;99.90;;;;;;5075162;28;20035;-69
2024/03/24 00:38:40;;;;;;;26.17;12.10;;;4.70;99.90;;;;;;5075147;28;20041;-69
2024/03/24 00:41:06;;;;;;;19.25;10.35;;;4.70;99.90;;;;;;5075066;28;20071;-69
2024/03/24 00:43:32;;;;;;;21.45;11.25;;;4.70;99.90;;;;;;5074909;28;20108;-69
2024/03/24 00:45:58;;;;;;;22.73;11.68;;;4.80;99.90;;;;;;5074657;28;20123;-69
2024/03/24 00:48:23;;;;;;;19.60;10.68;;;4.80;99.90;;;;;;5074825;28;20462;-69
2024/03/24 00:50:49;;;;;;;21.60;10.13;;;4.80;99.90;;;;;;5074690;28;20063;-69
2024/03/24 00:53:14;;;;;;;21.33;10.70;;;4.80;99.90;;;;;;5074669;28;20020;-69
2024/03/24 00:55:40;;;;;;;22.08;10.18;;;4.90;99.90;;;;;;5074902;28;20436;-69
2024/03/24 00:58:07;;;;;;;14.20;8.43;;;4.90;99.90;;;;;;5074892;28;20033;-69
2024/03/24 01:00:33;;;;;;;15.52;8.70;;;4.90;99.90;;;;;;5074540;28;20398;-69
2024/03/24 01:02:58;;;;;;;16.98;9.35;;;4.90;99.90;;;;;;5073589;28;20028;-69
2024/03/24 01:05:24;;;;;;;15.90;8.27;;;4.90;99.90;;;;;;5074506;28;20035;-68
2024/03/24 01:07:50;;;;;;;15.50;9.02;;;4.90;99.90;;;;;;5074674;28;20024;-68
2024/03/24 01:10:16;;;;;;;15.18;8.65;;;5.00;99.90;;;;;;5073123;28;20056;-68
2024/03/24 01:12:43;;;;;;;21.08;9.48;;;5.00;99.90;;;;;;5074376;28;20109;-69
2024/03/24 01:15:09;;;;;;;17.67;9.15;;;5.00;99.90;;;;;;5074434;28;20029;-69
2024/03/24 01:17:35;;;;;;;15.23;9.13;;;5.00;99.90;;;;;;5074314;28;20020;-68
2024/03/24 01:20:00;;;;;;;15.27;9.20;;;5.00;99.90;;;;;;5074171;28;20039;-68
2024/03/24 01:22:26;;;;;;;15.52;9.73;;;5.00;99.90;;;;;;5074415;28;20109;-69
2024/03/24 01:24:51;;;;;;;16.60;9.60;;;5.00;99.90;;;;;;5074080;28;20478;-68
2024/03/24 01:27:17;;;;;;;16.60;8.80;;;5.00;99.90;;;;;;5074104;28;20071;-68
2024/03/24 01:29:42;;;;;;;14.95;9.07;;;5.00;99.90;;;;;;5073882;28;20044;-69
2024/03/24 01:32:08;;;;;;;18.90;8.63;;;5.10;99.90;;;;;;5074261;28;20493;-69
2024/03/24 01:34:33;;;;;;;15.13;8.73;;;5.10;99.90;;;;;;5073861;28;20044;-69
2024/03/24 01:36:59;;;;;;;19.00;9.30;;;5.10;99.90;;;;;;5073879;28;20052;-69
2024/03/24 01:39:25;;;;;;;17.95;9.18;;;5.10;99.90;;;;;;5073765;28;20051;-68
2024/03/24 01:41:50;;;;;;;17.60;9.00;;;5.20;99.90;;;;;;5073836;28;20036;-68
2024/03/24 01:44:16;;;;;;;15.65;8.60;;;5.20;99.90;;;;;;5073758;28;20051;-68
2024/03/24 01:46:42;;;;;;;17.85;8.93;;;5.20;99.90;;;;;;5073758;28;20028;-69
2024/03/24 01:49:07;;;;;;;20.23;10.05;;;5.20;99.90;;;;;;5073539;28;20036;-69
2024/03/24 01:51:35;;;;;;;19.98;9.00;;;5.20;99.90;;;;;;5073470;28;20039;-68
2024/03/24 01:54:00;;;;;;;18.23;8.40;;;5.20;99.90;;;;;;5072376;28;20024;-68
2024/03/24 01:56:26;;;;;;;18.45;9.18;;;5.20;99.90;;;;;;5073687;28;20029;-69
2024/03/24 01:58:52;;;;;;;16.90;9.32;;;5.20;99.90;;;;;;5073530;28;20063;-69
2024/03/24 02:01:17;;;;;;;15.52;9.55;;;5.20;99.90;;;;;;5073149;28;20043;-68
2024/03/24 02:03:43;;;;;;;19.00;9.82;;;5.30;99.90;;;;;;5073695;28;20364;-68
2024/03/24 02:06:08;;;;;;;22.05;9.90;;;5.20;99.90;;;;;;5073585;28;20055;-69
2024/03/24 02:08:35;;;;;;;22.67;11.30;;;5.20;99.90;;;;;;5073355;28;20029;-68
2024/03/24 02:11:00;;;;;;;19.95;10.60;;;5.30;99.90;;;;;;5073166;28;20467;-68
2024/03/24 02:13:26;;;;;;;19.92;10.73;;;5.30;99.90;;;;;;5073497;28;20077;-68
2024/03/24 02:15:53;;;;;;;19.40;10.95;;;5.30;99.90;;;;;;5073268;28;20025;-69
2024/03/24 02:18:20;;;;;;;18.00;11.10;;;5.30;99.90;;;;;;5073491;28;20020;-68
2024/03/24 02:20:45;;;;;;;19.10;11.82;;;5.30;99.90;;;;;;5071954;28;20403;-69
2024/03/24 02:23:11;;;;;;;26.05;13.35;;;5.30;99.90;;;;;;5073395;28;20036;-68
2024/03/24 02:25:37;;;;;;;18.95;11.88;;;5.30;99.90;;;;;;5073535;28;20091;-68
2024/03/24 02:28:02;;;;;;;19.13;11.88;;;5.40;99.90;;;;;;5073154;28;20039;-68
2024/03/24 02:30:28;;;;;;;18.63;11.68;;;5.40;99.90;;;;;;5073010;28;20083;-69
2024/03/24 02:32:54;;;;;;;19.40;11.60;;;5.40;99.90;;;;;;5073135;28;20025;-68
2024/03/24 02:35:19;;;;;;;19.45;11.70;;;5.40;99.90;;;;;;5072971;28;20078;-69
2024/03/24 02:37:45;;;;;;;18.38;12.05;;;5.40;99.90;;;;;;5073109;28;20025;-69
2024/03/24 02:40:11;;;;;;;23.77;12.13;;;5.40;99.90;;;;;;5073109;28;20579;-69
2024/03/24 02:42:37;;;;;;;20.35;12.13;;;5.40;99.90;;;;;;5073618;28;20032;-68
2024/03/24 02:45:03;;;;;;;19.23;11.15;;;5.40;99.90;;;;;;5073171;28;20039;-69
2024/03/24 02:47:29;;;;;;;22.73;12.80;;;5.40;99.90;;;;;;5073176;28;20028;-68
2024/03/24 02:49:54;;;;;;;19.30;11.88;;;5.40;99.90;;;;;;5072896;28;20035;-69
2024/03/24 02:52:20;;;;;;;20.33;11.63;;;5.40;99.90;;;;;;5072873;28;20078;-68
2024/03/24 02:54:45;;;;;;;23.17;12.13;;;5.40;99.90;;;;;;5073187;28;20024;-68
2024/03/24 02:57:11;;;;;;;22.15;11.63;;;5.40;99.90;;;;;;5072992;28;20450;-68
2024/03/24 02:59:37;;;;;;;21.98;12.63;;;5.40;99.90;;;;;;5073223;28;20028;-68
2024/03/24 03:02:03;;;;;;;24.83;12.90;;;5.30;99.90;;;;;;5072818;28;20033;-68
2024/03/24 03:04:29;;;;;;;20.70;12.23;;;5.30;99.90;;;;;;5072847;28;20107;-69
2024/03/24 03:06:55;;;;;;;19.30;12.23;;;5.30;99.90;;;;;;5072863;28;20024;-68
2024/03/24 03:09:20;;;;;;;22.50;14.02;;;5.30;99.90;;;;;;5072693;28;20086;-68
2024/03/24 03:11:46;;;;;;;21.85;13.50;;;5.20;99.90;;;;;;5072607;28;20036;-68
2024/03/24 03:14:11;;;;;;;25.27;13.02;;;5.20;99.90;;;;;;5075507;28;20040;-68
2024/03/24 03:16:40;;;;;;;21.60;12.18;;;5.20;99.90;;;;;;5076705;28;20035;-69
2024/03/24 03:19:05;;;;;;;24.60;12.93;;;5.20;99.90;;;;;;5076769;28;20043;-68
2024/03/24 03:21:31;;;;;;;19.67;12.50;;;5.20;99.90;;;;;;5076466;28;20426;-68
2024/03/24 03:23:56;;;;;;;23.85;14.10;;;5.20;99.90;;;;;;5076634;28;20048;-69
2024/03/24 03:26:22;;;;;;;27.35;12.98;;;5.10;99.90;;;;;;5076609;28;20025;-68
2024/03/24 03:28:48;;;;;;;24.55;13.45;;;5.10;99.90;;;;;;5076334;28;20086;-68
2024/03/24 03:31:14;;;;;;;26.20;12.65;;;5.10;99.90;;;;;;5076034;28;20052;-68
2024/03/24 03:33:39;;;;;;;22.15;12.60;;;5.00;99.90;;;;;;5075331;28;20067;-69
2024/03/24 03:36:05;;;;;;;23.77;13.68;;;5.00;99.90;;;;;;5075010;28;20031;-68
2024/03/24 03:38:30;;;;;;;22.42;13.80;;;5.00;99.90;;;;;;5075945;28;20025;-68
2024/03/24 03:40:56;;;;;;;20.95;12.55;;;5.00;99.90;;;;;;5076097;28;20119;-68
2024/03/24 03:43:21;;;;;;;22.92;13.00;;;5.00;99.90;;;;;;5076293;28;20042;-68
2024/03/24 03:45:48;;;;;;;22.85;13.60;;;5.10;99.90;;;;;;5076035;28;20032;-68
2024/03/24 03:48:13;;;;;;;25.10;14.00;;;4.90;99.90;;;;;;5076086;28;20441;-68
2024/03/24 03:50:41;;;;;;;24.83;13.60;;;4.90;99.90;;;;;;5075991;28;20035;-69
2024/03/24 03:53:07;;;;;;;22.20;13.27;;;5.00;99.90;;;;;;5076264;28;20082;-69
2024/03/24 03:55:33;;;;;;;19.65;13.25;;;5.00;99.90;;;;;;5074711;28;20120;-68
2024/03/24 03:58:00;;;;;;;29.55;14.07;;;5.00;99.90;;;;;;5074665;28;20067;-69
2024/03/24 04:00:25;;;;;;;26.55;14.65;;;5.00;99.90;;;;;;5075837;28;20474;-68
2024/03/24 04:02:51;;;;;;;24.08;14.55;;;5.00;99.90;;;;;;5075799;28;20043;-70
2024/03/24 04:05:18;;;;;;;26.85;13.93;;;5.00;99.90;;;;;;5075898;28;20036;-70
2024/03/24 04:07:43;;;;;;;20.55;12.75;;;5.10;99.90;;;;;;5075518;28;20039;-70
2024/03/24 04:10:09;;;;;;;20.00;13.23;;;5.10;99.90;;;;;;5075610;28;20433;-70
2024/03/24 04:12:36;;;;;;;23.05;13.85;;;5.10;99.90;;;;;;5075751;28;20070;-69
2024/03/24 04:15:03;;;;;;;26.83;14.65;;;5.00;99.90;;;;;;5075521;28;20028;-69
2024/03/24 04:17:29;;;;;;;21.42;14.15;;;5.00;99.90;;;;;;5075534;28;20077;-70
2024/03/24 04:19:55;;;;;;;21.48;13.45;;;5.10;99.90;;;;;;5075432;28;20021;-70
2024/03/24 04:22:21;;;;;;;21.58;13.68;;;5.10;99.90;;;;;;5075475;28;20222;-70
2024/03/24 04:24:49;;;;;;;19.70;12.07;;;5.10;99.90;;;;;;5075320;28;20514;-70
2024/03/24 04:27:16;;;;;;;21.15;12.18;;;5.00;99.90;;;;;;5075424;28;20424;-70
2024/03/24 04:29:42;;;;;;;18.75;12.13;;;5.10;99.90;;;;;;5075042;28;20036;-70
2024/03/24 04:32:08;;;;;;;18.02;11.73;;;5.20;99.90;;;;;;5075333;28;20025;-70
2024/03/24 04:34:33;;;;;;;19.75;11.50;;;5.10;99.90;;;;;;5075356;28;20024;-71
2024/03/24 04:36:59;;;;;;;17.88;10.90;;;5.00;99.90;;;;;;5075303;28;20126;-70
2024/03/24 04:39:25;;;;;;;19.33;12.48;;;4.90;99.90;;;;;;5075122;28;20364;-70
2024/03/24 04:41:51;;;;;;;20.58;12.05;;;4.90;99.90;;;;;;5075279;28;20115;-67
2024/03/24 04:44:16;;;;;;;18.40;12.07;;;4.90;99.90;;;;;;5074990;28;20556;-67
2024/03/24 04:46:42;;;;;;;20.08;11.68;;;4.90;99.90;;;;;;5075106;28;20039;-66
2024/03/24 04:49:07;;;;;;;23.73;12.90;;;4.90;99.90;;;;;;5075036;28;20024;-67
2024/03/24 04:51:33;;;;;;;19.08;12.65;;;4.90;99.90;;;;;;5074986;28;20031;-68
2024/03/24 04:53:59;;;;;;;18.40;12.77;;;4.90;99.90;;;;;;5073841;28;20036;-67
2024/03/24 04:56:24;;;;;;;23.88;13.52;;;4.90;99.90;;;;;;5074750;28;20024;-66
2024/03/24 04:58:50;;;;;;;22.40;13.40;;;4.90;99.90;;;;;;5074869;28;20032;-67
2024/03/24 05:01:16;;;;;;;22.52;12.55;;;4.80;99.90;;;;;;5074546;28;20119;-67
2024/03/24 05:03:42;;;;;;;25.80;12.57;;;4.80;99.90;;;;;;5073527;28;20032;-67
2024/03/24 05:06:07;;;;;;;25.02;14.35;;;4.70;99.90;;;;;;5073476;28;20078;-67
2024/03/24 05:08:36;;;;;;;28.52;14.82;;;4.70;99.90;;;;;;5074439;28;20035;-67
2024/03/24 05:11:05;;;;;;;24.15;15.27;;;4.70;99.90;;;;;;5074346;28;20086;-67
2024/03/24 05:13:31;;;;;;;24.42;14.88;;;4.70;99.90;;;;;;5074417;28;20028;-67
2024/03/24 05:15:57;;;;;;;24.70;14.65;;;4.70;99.90;;;;;;5074565;28;20424;-67
2024/03/24 05:18:22;;;;;;;26.20;15.00;;;4.70;99.90;;;;;;5074491;28;20025;-67
2024/03/24 05:20:48;;;;;;;27.17;15.55;;;4.70;99.90;;;;;;5074206;28;20038;-67
2024/03/24 05:23:18;;;;;;;27.50;15.15;;;4.70;99.90;;;;;;5074228;28;20109;-67
2024/03/24 05:25:48;;;;;;;26.33;15.20;;;4.70;99.90;;;;;;5074184;28;20435;-67
2024/03/24 05:28:13;;;;;;;29.35;16.10;;;4.70;99.90;;;;;;5074295;28;20031;-67
2024/03/24 05:30:39;;;;;;;28.52;15.90;;;4.80;99.90;;;;;;5073855;28;20052;-67
2024/03/24 05:33:04;;;;;;;28.35;16.48;;;4.80;99.90;;;;;;5073943;28;20104;-67
2024/03/24 05:35:30;;;;;;;33.75;16.98;;;4.80;99.90;;;;;;5073233;28;20471;-67
2024/03/24 05:37:55;;;;;;;29.60;16.98;;;4.90;99.90;;;;;;5072651;28;20024;-67
2024/03/24 05:40:21;;;;;;;33.22;17.05;;;4.90;99.90;;;;;;5073802;28;20032;-67
2024/03/24 05:42:46;;;;;;;36.50;18.27;;;4.90;99.90;;;;;;5074064;28;20035;-68
2024/03/24 05:45:12;;;;;;;33.60;17.85;;;4.90;99.90;;;;;;5073965;28;20028;-67
2024/03/24 05:47:37;;;;;;;34.33;19.60;;;5.00;99.90;;;;;;5073630;28;20025;-68
2024/03/24 05:50:03;;;;;;;31.55;16.95;;;5.00;99.90;;;;;;5073517;28;20032;-67
2024/03/24 05:52:30;;;;;;;35.10;17.17;;;5.10;99.90;;;;;;5073650;28;20024;-67
2024/03/24 05:54:55;;;;;;;31.05;17.92;;;5.10;99.90;;;;;;5073818;28;20020;-68
2024/03/24 05:57:21;;;;;;;35.78;18.52;;;5.10;99.90;;;;;;5073459;28;20584;-68
2024/03/24 05:59:46;;;;;;;32.85;18.83;;;5.10;99.90;;;;;;5073614;28;20070;-68
2024/03/24 06:02:12;;;;;;;34.28;19.30;;;5.10;99.90;;;;;;5073627;28;20052;-68
2024/03/24 06:04:37;;;;;;;33.55;18.95;;;5.10;99.90;;;;;;5073686;28;20021;-68
2024/03/24 06:07:07;;;;;;;31.85;18.33;;;5.20;99.90;;;;;;5073218;28;20486;-68
2024/03/24 06:09:35;;;;;;;33.78;18.42;;;5.20;99.90;;;;;;5073206;28;20433;-69
2024/03/24 06:12:01;;;;;;;41.38;20.58;;;5.20;99.90;;;;;;5073335;28;20032;-68
2024/03/24 06:14:26;;;;;;;36.05;19.50;;;5.10;99.90;;;;;;5073346;28;20099;-68
2024/03/24 06:16:52;;;;;;;44.88;21.83;;;5.10;99.90;;;;;;5073324;28;20052;-68
2024/03/24 06:19:18;;;;;;;43.22;22.33;;;5.10;99.90;;;;;;5073290;28;20086;-68
2024/03/24 06:21:43;;;;;;;41.03;20.13;;;5.10;99.90;;;;;;5073325;28;20028;-68
2024/03/24 06:24:09;;;;;;;37.85;20.85;;;5.10;99.90;;;;;;5073324;28;20145;-68
2024/03/24 06:26:34;;;;;;;37.95;21.30;;;5.10;99.90;;;;;;5073167;28;20056;-69
2024/03/24 06:29:00;;;;;;;37.67;21.20;;;5.10;99.90;;;;;;5073367;28;20123;-68
2024/03/24 06:31:25;;;;;;;33.17;18.67;;;5.10;99.90;;;;;;5072899;28;20543;-68
2024/03/24 06:33:51;;;;;;;30.73;17.23;;;4.90;99.90;;;;;;5073339;28;20036;-68
2024/03/24 06:36:16;;;;;;;25.15;15.20;;;4.90;99.90;;;;;;5073164;28;20024;-68
2024/03/24 06:38:42;;;;;;;26.60;15.55;;;4.80;99.90;;;;;;5073159;28;20102;-68
2024/03/24 06:41:07;;;;;;;21.20;13.15;;;4.80;99.90;;;;;;5073091;28;20489;-69
2024/03/24 06:43:36;;;;;;;22.90;12.60;;;4.70;99.90;;;;;;5073316;28;20024;-69
2024/03/24 06:46:02;;;;;;;21.50;13.25;;;4.70;99.90;;;;;;5073440;28;20029;-69
2024/03/24 06:48:28;;;;;;;17.95;10.63;;;4.70;99.90;;;;;;5077190;28;20082;-70
2024/03/24 06:50:54;;;;;;;18.27;10.57;;;4.70;99.90;;;;;;5077060;28;20028;-70
2024/03/24 06:53:19;;;;;;;19.08;10.25;;;4.80;99.90;;;;;;5077272;28;20433;-70
2024/03/24 06:55:49;;;;;;;20.20;10.73;;;4.90;99.90;;;;;;5077088;28;20103;-70
2024/03/24 06:58:16;;;;;;;18.02;10.45;;;4.90;99.90;;;;;;5077235;28;20368;-70
2024/03/24 07:00:41;;;;;;;16.63;10.35;;;5.00;99.90;;;;;;5075983;28;20592;-70
2024/03/24 07:03:07;;;;;;;13.68;9.85;;;5.00;99.90;;;;;;5076844;28;20028;-70
2024/03/24 07:05:32;;;;;;;14.88;10.00;;;5.00;99.90;;;;;;5076958;28;20028;-70
2024/03/24 07:07:58;;;;;;;15.82;10.88;;;5.00;99.90;;;;;;5076787;28;20067;-70
2024/03/24 07:10:23;;;;;;;16.48;10.75;;;5.00;99.90;;;;;;5076721;28;20116;-70
2024/03/24 07:12:49;;;;;;;18.27;11.15;;;5.00;99.90;;;;;;5076733;28;20482;-69
2024/03/24 07:15:14;;;;;;;16.23;11.05;;;5.00;99.90;;;;;;5076715;28;20075;-69
2024/03/24 07:17:40;;;;;;;17.38;12.00;;;5.00;99.90;;;;;;5076919;28;20031;-70
2024/03/24 07:20:07;;;;;;;16.75;11.93;;;5.10;99.90;;;;;;5076482;28;20391;-69
2024/03/24 07:22:32;;;;;;;18.88;12.60;;;5.10;99.90;;;;;;5076766;28;20078;-70
2024/03/24 07:24:58;;;;;;;26.48;13.85;;;5.20;99.90;;;;;;5076431;28;20103;-70
2024/03/24 07:27:24;;;;;;;21.25;13.63;;;5.20;99.90;;;;;;5076382;28;20029;-70
2024/03/24 07:29:50;;;;;;;26.58;15.07;;;5.20;99.90;;;;;;5076278;28;20098;-70
2024/03/24 07:32:16;;;;;;;24.45;15.05;;;5.30;99.90;;;;;;5076220;28;20364;-70
2024/03/24 07:34:42;;;;;;;27.15;16.80;;;5.30;99.90;;;;;;5076393;28;20044;-70
2024/03/24 07:37:08;;;;;;;29.98;16.92;;;5.50;99.90;;;;;;5076172;28;20070;-70
2024/03/24 07:39:34;;;;;;;26.15;16.77;;;5.60;99.90;;;;;;5074689;28;20120;-70
2024/03/24 07:41:59;;;;;;;27.63;17.45;;;5.70;99.90;;;;;;5076155;28;20060;-70
2024/03/24 07:44:25;;;;;;;28.38;17.15;;;5.80;99.90;;;;;;5076044;28;20037;-70
2024/03/24 07:46:51;;;;;;;28.52;16.70;;;5.70;99.90;;;;;;5076035;28;20398;-70
2024/03/24 07:49:16;;;;;;;30.67;18.63;;;5.70;99.90;;;;;;5075981;28;20037;-70
2024/03/24 07:51:42;;;;;;;27.85;17.30;;;5.70;99.90;;;;;;5075590;28;20028;-70
2024/03/24 07:54:08;;;;;;;29.45;16.80;;;5.70;99.90;;;;;;5075852;28;20028;-70
2024/03/24 07:56:34;;;;;;;29.88;17.55;;;5.70;99.90;;;;;;5075644;28;20024;-70
2024/03/24 07:58:59;;;;;;;32.78;16.92;;;5.80;99.90;;;;;;5073928;28;20501;-70
2024/03/24 08:01:25;;;;;;;28.27;16.60;;;5.80;99.90;;;;;;5075776;28;20029;-70
2024/03/24 08:03:51;;;;;;;29.33;18.25;;;5.80;99.90;;;;;;5075666;28;20086;-70
2024/03/24 08:06:17;;;;;;;28.00;16.65;;;5.70;99.90;;;;;;5075756;28;20107;-69
2024/03/24 08:08:43;;;;;;;26.95;17.20;;;5.80;99.90;;;;;;5075787;28;20050;-69
2024/03/24 08:11:08;;;;;;;27.48;17.70;;;5.80;99.90;;;;;;5075399;28;20024;-70
2024/03/24 08:13:34;;;;;;;27.90;16.00;;;5.90;99.90;;;;;;5075812;28;20484;-70
2024/03/24 08:16:01;;;;;;;28.02;15.35;;;5.90;99.90;;;;;;5075778;28;20410;-70
2024/03/24 08:18:26;;;;;;;24.67;13.30;;;5.90;99.90;;;;;;5075731;28;20513;-70
2024/03/24 08:20:52;;;;;;;20.60;12.35;;;5.90;99.90;;;;;;5075498;28;20032;-70
2024/03/24 08:23:18;;;;;;;21.23;13.43;;;5.90;99.90;;;;;;5075344;28;20037;-69
2024/03/24 08:25:44;;;;;;;24.10;13.27;;;6.00;99.90;;;;;;5075297;28;20103;-69
2024/03/24 08:28:10;;;;;;;22.58;12.35;;;6.10;99.90;;;;;;5075270;28;20479;-69
2024/03/24 08:30:39;;;;;;;19.95;12.25;;;6.30;99.90;;;;;;5074958;28;20041;-69
2024/03/24 08:33:05;;;;;;;17.80;10.00;;;6.40;99.90;;;;;;5075184;28;20016;-69
2024/03/24 08:35:31;;;;;;;15.85;9.63;;;6.60;99.90;;;;;;5075144;28;20025;-70
2024/03/24 08:37:57;;;;;;;14.82;8.32;;;6.50;99.90;;;;;;5074861;28;20021;-70
2024/03/24 08:40:22;;;;;;;10.73;7.07;;;6.40;99.90;;;;;;5075281;28;20371;-69
2024/03/24 08:42:48;;;;;;;11.90;5.43;;;6.60;99.90;;;;;;5075098;28;20035;-70
2024/03/24 08:45:14;;;;;;;14.45;5.72;;;6.30;99.90;;;;;;5075129;28;20032;-70
2024/03/24 08:47:39;;;;;;;7.75;5.20;;;6.30;99.90;;;;;;5074905;28;20490;-70
2024/03/24 08:50:05;;;;;;;10.00;5.70;;;6.50;99.90;;;;;;5074624;28;20025;-70
2024/03/24 08:52:31;;;;;;;10.85;5.78;;;6.40;99.90;;;;;;5074918;28;20055;-70
2024/03/24 08:54:57;;;;;;;13.10;6.28;;;6.40;99.90;;;;;;5074827;28;20027;-69
2024/03/24 08:57:22;;;;;;;10.95;6.70;;;6.40;99.90;;;;;;5074578;28;20029;-70
2024/03/24 08:59:48;;;;;;;10.02;6.07;;;6.40;99.90;;;;;;5074888;28;20028;-70
2024/03/24 09:02:13;;;;;;;9.82;4.75;;;6.50;99.90;;;;;;5074696;28;20109;-70
2024/03/24 09:04:39;;;;;;;9.32;4.78;;;6.70;99.90;;;;;;5074571;28;20078;-70
2024/03/24 09:07:04;;;;;;;10.50;4.65;;;6.80;99.90;;;;;;5074554;28;20078;-70
2024/03/24 09:09:30;;;;;;;11.80;4.40;;;6.70;99.90;;;;;;5073936;28;20086;-70
2024/03/24 09:11:55;;;;;;;8.38;4.32;;;6.70;99.90;;;;;;5073886;28;20067;-70
2024/03/24 09:14:21;;;;;;;9.38;4.60;;;6.60;99.90;;;;;;5074439;28;20056;-70
2024/03/24 09:16:46;;;;;;;8.90;4.38;;;6.40;99.90;;;;;;5074513;28;20367;-70
2024/03/24 09:19:14;;;;;;;11.73;5.45;;;6.40;99.90;;;;;;5074462;28;20449;-70
2024/03/24 09:21:40;;;;;;;10.65;4.97;;;6.40;99.90;;;;;;5074047;28;20028;-70
2024/03/24 09:24:05;;;;;;;9.45;4.00;;;6.50;99.90;;;;;;5074107;28;20078;-70
2024/03/24 09:26:31;;;;;;;10.90;5.20;;;6.50;99.90;;;;;;5074136;28;20051;-70
2024/03/24 09:28:56;;;;;;;10.45;4.10;;;6.70;99.90;;;;;;5074069;28;20052;-70
2024/03/24 09:31:22;;;;;;;11.48;4.50;;;7.10;99.90;;;;;;5073787;28;20122;-70
2024/03/24 09:33:48;;;;;;;12.00;4.90;;;7.90;99.90;;;;;;5074232;28;20485;-70
2024/03/24 09:36:15;;;;;;;10.75;4.53;;;8.00;91.20;;;;;;5074154;28;20441;-70
2024/03/24 09:38:41;;;;;;;8.65;5.45;;;7.50;99.90;;;;;;5074121;28;20029;-71
2024/03/24 09:41:06;;;;;;;10.88;5.65;;;7.40;99.90;;;;;;5073631;28;20043;-70
2024/03/24 09:43:32;;;;;;;15.75;6.82;;;7.50;99.90;;;;;;5073833;28;20438;-70
2024/03/24 09:45:58;;;;;;;10.38;6.25;;;8.00;99.90;;;;;;5073799;28;20121;-70
2024/03/24 09:48:25;;;;;;;12.43;7.10;;;8.10;72.10;;;;;;5073734;28;20024;-70
2024/03/24 09:50:52;;;;;;;14.80;7.88;;;8.20;50.80;;;;;;5073370;28;20029;-70
2024/03/24 09:53:20;;;;;;;16.45;9.18;;;8.10;65.40;;;;;;5073770;28;20070;-70
2024/03/24 09:55:46;;;;;;;16.52;8.82;;;8.00;55.70;;;;;;5073692;28;20020;-70
2024/03/24 09:58:12;;;;;;;17.58;9.07;;;8.60;57.30;;;;;;5073527;28;20021;-70
2024/03/24 10:00:38;;;;;;;14.07;8.27;;;8.70;42.40;;;;;;5073343;28;20025;-70
2024/03/24 10:03:05;;;;;;;16.02;8.75;;;9.10;34.10;;;;;;5073474;28;20029;-70
2024/03/24 10:05:32;;;;;;;19.38;11.10;;;9.10;15.10;;;;;;5073522;28;20391;-70
2024/03/24 10:07:59;;;;;;;18.77;11.35;;;8.90;23.60;;;;;;5073687;28;20052;-70
2024/03/24 10:10:25;;;;;;;19.77;11.68;;;8.60;8.70;;;;;;5073267;28;20028;-70
2024/03/24 10:12:52;;;;;;;19.80;11.93;;;;;;;;;;5073205;28;20544;-70
2024/03/24 10:15:20;;;;;;;19.92;11.07;;;9.50;11.50;;;;;;5073252;28;20035;-69
2024/03/24 10:17:45;;;;;;;17.35;11.23;;;9.70;1.00;;;;;;5073583;28;20379;-70
2024/03/24 10:20:13;;;;;;;18.38;11.27;;;9.70;1.00;;;;;;5073259;28;20025;-70
2024/03/24 10:22:39;;;;;;;20.92;10.57;;;10.20;1.00;;;;;;5071708;28;20030;-70
2024/03/24 10:25:12;;;;;;;21.67;10.73;;;10.30;1.00;;;;;;5073150;28;20021;-69
2024/03/24 10:27:39;;;;;;;16.25;10.98;;;;;;;;;;5073238;28;20059;-70
2024/03/24 10:30:05;;;;;;;17.98;11.43;;;10.80;99.90;;;;;;5073035;28;20093;-70
2024/03/24 10:32:32;;;;;;;21.83;12.93;;;10.50;1.00;;;;;;5073400;28;20053;-70
2024/03/24 10:35:00;;;;;;;23.75;12.95;;;10.20;1.00;;;;;;5073328;28;20436;-70
2024/03/24 10:37:27;;;;;;;20.50;12.18;;;9.90;1.00;;;;;;5073336;28;20545;-70
2024/03/24 10:39:53;;;;;;;20.35;13.15;;;9.90;1.00;;;;;;5073346;28;20031;-70
2024/03/24 10:42:19;;;;;;;23.48;13.75;;;10.00;1.00;;;;;;5073199;28;20025;-70
2024/03/24 10:44:45;;;;;;;25.05;13.77;;;10.00;1.00;;;;;;5073380;28;20052;-70
2024/03/24 10:47:11;;;;;;;21.65;14.00;;;9.90;1.00;;;;;;5072992;28;20068;-70
2024/03/24 10:49:40;;;;;;;23.92;13.27;;;9.50;1.00;;;;;;5072978;28;20075;-70
2024/03/24 10:52:09;;;;;;;30.15;14.18;;;9.50;1.00;;;;;;5072893;28;20107;-70
2024/03/24 10:54:36;;;;;;;25.90;14.23;;;9.20;1.00;;;;;;5072919;28;20036;-70
2024/03/24 10:57:05;;;;;;;30.20;14.68;;;8.70;1.00;;;;;;5072961;28;20133;-69
2024/03/24 10:59:31;;;;;;;27.25;14.10;;;8.30;33.10;;;;;;5072962;28;20406;-69
2024/03/24 11:01:58;;;;;;;28.20;14.10;;;7.90;58.90;;;;;;5072714;28;20115;-68
2024/03/24 11:04:26;;;;;;;28.73;13.52;;;7.60;99.90;;;;;;5073009;28;20115;-69
2024/03/24 11:06:52;;;;;;;17.98;11.32;;;7.20;99.90;;;;;;5072980;28;20055;-68
2024/03/24 11:09:18;;;;;;;18.75;9.35;;;6.80;99.90;;;;;;5072920;28;20482;-68
2024/03/24 11:11:44;;;;;;;13.23;6.97;;;6.60;99.90;;;;;;5072754;28;20031;-69
2024/03/24 11:14:11;;;;;;;17.90;6.90;;;6.50;99.90;;;;;;5072633;28;20025;-69
2024/03/24 11:16:36;;;;;;;11.35;6.03;;;6.50;99.90;;;;;;5072619;28;20391;-69
2024/03/24 11:19:09;;;;;;;14.15;5.90;;;6.70;99.90;;;;;;5072736;28;20032;-69
2024/03/24 11:21:39;;;;;;;14.10;5.93;;;6.90;99.90;;;;;;5072870;28;20029;-70
2024/03/24 11:24:09;;;;;;;14.10;6.03;;;7.10;99.90;;;;;;5072874;28;20263;-70
2024/03/24 11:26:34;;;;;;;10.93;5.22;;;6.90;99.90;;;;;;5071474;28;20054;-70
2024/03/24 11:29:00;;;;;;;14.25;5.50;;;7.00;99.90;;;;;;5072820;28;20039;-69
2024/03/24 11:31:31;;;;;;;10.73;5.20;;;6.90;99.90;;;;;;5072057;28;20555;-70
2024/03/24 11:34:08;;;;;;;10.77;4.05;;;6.90;99.90;;;;;;5074232;28;20033;-71
2024/03/24 11:36:36;;;;;;;9.95;3.78;;;6.90;99.90;;;;;;5091836;28;20028;-70
2024/03/24 11:39:04;;;;;;;11.25;4.43;;;7.00;99.90;;;;;;5076079;28;20040;-70
2024/03/24 11:41:30;;;;;;;10.60;4.25;;;7.20;99.90;;;;;;5074736;28;20051;-69
2024/03/24 11:44:00;;;;;;;9.40;4.00;;;7.50;99.90;;;;;;5076412;28;20490;-69
2024/03/24 11:46:28;;;;;;;11.15;4.78;;;7.60;99.90;;;;;;5076183;28;20027;-69
2024/03/24 11:48:57;;;;;;;15.80;5.10;;;7.50;99.90;;;;;;5076263;28;20371;-69
2024/03/24 11:51:25;;;;;;;8.52;4.82;;;7.40;99.90;;;;;;5075971;28;20079;-69
2024/03/24 11:53:52;;;;;;;10.18;4.68;;;7.20;99.90;;;;;;5075986;28;20044;-69
2024/03/24 11:56:19;;;;;;;8.98;4.53;;;7.00;99.90;;;;;;5074974;28;20029;-69
2024/03/24 11:58:49;;;;;;;13.45;4.75;;;7.00;99.90;;;;;;5076079;28;20029;-69
2024/03/24 12:01:16;;;;;;;7.05;3.30;;;6.90;99.90;;;;;;5075626;28;20036;-70
2024/03/24 12:03:42;;;;;;;7.72;2.97;;;7.00;99.90;;;;;;5075968;28;20088;-70
2024/03/24 12:06:08;;;;;;;5.90;2.63;;;7.20;99.90;;;;;;5075606;28;20393;-70
2024/03/24 12:08:34;;;;;;;6.38;3.10;;;7.30;99.90;;;;;;5075882;28;20524;-70
2024/03/24 12:11:00;;;;;;;7.63;2.78;;;7.60;99.90;;;;;;5075620;28;20024;-70
2024/03/24 12:13:25;;;;;;;7.50;3.03;;;7.60;99.90;;;;;;5075663;28;20444;-70
2024/03/24 12:15:51;;;;;;;5.55;2.60;;;7.90;99.90;;;;;;5075568;28;20028;-70
2024/03/24 12:18:17;;;;;;;4.43;2.65;;;8.30;99.90;;;;;;5075862;28;20031;-70
2024/03/24 12:20:43;;;;;;;8.40;2.15;;;8.30;92.00;;;;;;5075447;28;20033;-70
2024/03/24 12:23:09;;;;;;;7.85;2.50;;;8.20;81.60;;;;;;5075457;28;20047;-70
2024/03/24 12:25:34;;;;;;;7.07;3.17;;;8.40;66.30;;;;;;5075415;28;20478;-70
2024/03/24 12:28:00;;;;;;;10.65;2.97;;;8.50;74.90;;;;;;5075556;28;20040;-70
2024/03/24 12:30:27;;;;;;;6.50;2.70;;;8.50;77.60;;;;;;5074982;28;20048;-70
2024/03/24 12:32:56;;;;;;;7.30;2.88;;;8.90;92.10;;;;;;5075439;28;20024;-70
2024/03/24 12:35:22;;;;;;;8.15;2.70;;;8.90;50.10;;;;;;5075251;28;20051;-70
2024/03/24 12:37:49;;;;;;;7.55;2.58;;;9.20;45.30;;;;;;5075369;28;20021;-70